sensor_id;sensor_type;location;lat;lon;timestamp;P1;durP1;ratioP1;P2;durP2;ratioP2
3000;SDS011;1510;51.072;6.678;2023-09-08T00:02:11;250.47;;;239.37;;
3000;SDS011;1510;51.072;6.678;2023-09-08T00:04:38;268.43;;;256.03;;
3000;SDS011;1510;51.072;6.678;2023-09-08T00:07:06;271.40;;;259.10;;
3000;SDS011;1510;51.072;6.678;2023-09-08T00:09:33;286.73;;;273.43;;
3000;SDS011;1510;51.072;6.678;2023-09-08T00:12:01;271.53;;;259.00;;
3000;SDS011;1510;51.072;6.678;2023-09-08T00:14:28;297.53;;;283.37;;
3000;SDS011;1510;51.072;6.678;2023-09-08T00:16:55;287.70;;;274.03;;
3000;SDS011;1510;51.072;6.678;2023-09-08T00:19:22;277.60;;;264.73;;
3000;SDS011;1510;51.072;6.678;2023-09-08T00:21:49;280.93;;;268.00;;
3000;SDS011;1510;51.072;6.678;2023-09-08T00:24:16;290.47;;;276.60;;
3000;SDS011;1510;51.072;6.678;2023-09-08T00:26:44;267.10;;;255.03;;
3000;SDS011;1510;51.072;6.678;2023-09-08T00:29:12;257.83;;;246.43;;
3000;SDS011;1510;51.072;6.678;2023-09-08T00:31:39;260.33;;;249.03;;
3000;SDS011;1510;51.072;6.678;2023-09-08T00:34:06;267.07;;;255.17;;
3000;SDS011;1510;51.072;6.678;2023-09-08T00:36:33;288.87;;;276.00;;
3000;SDS011;1510;51.072;6.678;2023-09-08T00:39:00;282.17;;;269.40;;
3000;SDS011;1510;51.072;6.678;2023-09-08T00:41:27;284.60;;;271.83;;
3000;SDS011;1510;51.072;6.678;2023-09-08T00:43:53;277.03;;;264.53;;
3000;SDS011;1510;51.072;6.678;2023-09-08T00:46:22;273.70;;;261.40;;
3000;SDS011;1510;51.072;6.678;2023-09-08T00:48:50;300.17;;;286.00;;
3000;SDS011;1510;51.072;6.678;2023-09-08T00:51:17;296.10;;;282.20;;
3000;SDS011;1510;51.072;6.678;2023-09-08T00:53:44;342.33;;;326.03;;
3000;SDS011;1510;51.072;6.678;2023-09-08T00:56:12;410.73;;;389.63;;
3000;SDS011;1510;51.072;6.678;2023-09-08T00:58:39;391.10;;;371.90;;
3000;SDS011;1510;51.072;6.678;2023-09-08T01:01:06;351.57;;;334.43;;
3000;SDS011;1510;51.072;6.678;2023-09-08T01:03:34;367.20;;;348.97;;
3000;SDS011;1510;51.072;6.678;2023-09-08T01:06:02;362.93;;;345.40;;
3000;SDS011;1510;51.072;6.678;2023-09-08T01:08:31;375.83;;;357.53;;
3000;SDS011;1510;51.072;6.678;2023-09-08T01:10:58;520.50;;;491.20;;
3000;SDS011;1510;51.072;6.678;2023-09-08T01:13:25;531.63;;;500.57;;
3000;SDS011;1510;51.072;6.678;2023-09-08T01:15:51;489.87;;;463.17;;
3000;SDS011;1510;51.072;6.678;2023-09-08T01:18:18;474.13;;;448.63;;
3000;SDS011;1510;51.072;6.678;2023-09-08T01:20:55;468.13;;;442.83;;
3000;SDS011;1510;51.072;6.678;2023-09-08T01:23:50;438.90;;;416.60;;
3000;SDS011;1510;51.072;6.678;2023-09-08T01:26:30;458.87;;;435.53;;
3000;SDS011;1510;51.072;6.678;2023-09-08T01:29:02;445.33;;;423.13;;
3000;SDS011;1510;51.072;6.678;2023-09-08T01:31:31;448.17;;;425.63;;
3000;SDS011;1510;51.072;6.678;2023-09-08T01:33:58;418.60;;;398.73;;
3000;SDS011;1510;51.072;6.678;2023-09-08T01:36:26;447.80;;;425.27;;
3000;SDS011;1510;51.072;6.678;2023-09-08T01:38:53;443.23;;;421.00;;
3000;SDS011;1510;51.072;6.678;2023-09-08T01:41:20;462.70;;;438.80;;
3000;SDS011;1510;51.072;6.678;2023-09-08T01:43:48;484.23;;;458.07;;
3000;SDS011;1510;51.072;6.678;2023-09-08T01:46:15;499.47;;;471.87;;
3000;SDS011;1510;51.072;6.678;2023-09-08T01:48:42;493.20;;;466.80;;
3000;SDS011;1510;51.072;6.678;2023-09-08T01:51:09;500.83;;;473.93;;
3000;SDS011;1510;51.072;6.678;2023-09-08T01:53:36;504.30;;;477.00;;
3000;SDS011;1510;51.072;6.678;2023-09-08T01:56:03;484.03;;;458.43;;
3000;SDS011;1510;51.072;6.678;2023-09-08T01:58:30;499.20;;;472.30;;
3000;SDS011;1510;51.072;6.678;2023-09-08T02:01:00;480.53;;;454.93;;
3000;SDS011;1510;51.072;6.678;2023-09-08T02:03:30;504.57;;;477.20;;
3000;SDS011;1510;51.072;6.678;2023-09-08T02:05:57;547.60;;;517.40;;
3000;SDS011;1510;51.072;6.678;2023-09-08T02:08:24;564.93;;;533.70;;
3000;SDS011;1510;51.072;6.678;2023-09-08T02:10:51;533.90;;;504.53;;
3000;SDS011;1510;51.072;6.678;2023-09-08T02:13:18;533.57;;;505.07;;
3000;SDS011;1510;51.072;6.678;2023-09-08T02:15:44;485.53;;;460.20;;
3000;SDS011;1510;51.072;6.678;2023-09-08T02:18:13;474.40;;;450.00;;
3000;SDS011;1510;51.072;6.678;2023-09-08T02:20:40;492.93;;;467.03;;
3000;SDS011;1510;51.072;6.678;2023-09-08T02:23:07;466.57;;;442.87;;
3000;SDS011;1510;51.072;6.678;2023-09-08T02:25:34;448.77;;;425.87;;
3000;SDS011;1510;51.072;6.678;2023-09-08T02:28:01;480.53;;;455.20;;
3000;SDS011;1510;51.072;6.678;2023-09-08T02:30:28;479.90;;;454.97;;
3000;SDS011;1510;51.072;6.678;2023-09-08T02:32:55;507.00;;;480.00;;
3000;SDS011;1510;51.072;6.678;2023-09-08T02:35:24;466.20;;;442.20;;
3000;SDS011;1510;51.072;6.678;2023-09-08T02:37:51;476.97;;;452.63;;
3000;SDS011;1510;51.072;6.678;2023-09-08T02:40:18;504.20;;;477.67;;
3000;SDS011;1510;51.072;6.678;2023-09-08T02:42:45;470.63;;;446.73;;
3000;SDS011;1510;51.072;6.678;2023-09-08T02:45:12;486.00;;;460.80;;
3000;SDS011;1510;51.072;6.678;2023-09-08T02:47:39;533.73;;;505.00;;
3000;SDS011;1510;51.072;6.678;2023-09-08T02:50:06;531.90;;;503.03;;
3000;SDS011;1510;51.072;6.678;2023-09-08T02:52:35;503.93;;;477.47;;
3000;SDS011;1510;51.072;6.678;2023-09-08T02:55:02;495.67;;;469.17;;
3000;SDS011;1510;51.072;6.678;2023-09-08T02:57:29;500.40;;;474.50;;
3000;SDS011;1510;51.072;6.678;2023-09-08T02:59:56;486.97;;;461.73;;
3000;SDS011;1510;51.072;6.678;2023-09-08T03:02:23;497.00;;;471.00;;
3000;SDS011;1510;51.072;6.678;2023-09-08T03:04:51;524.03;;;496.63;;
3000;SDS011;1510;51.072;6.678;2023-09-08T03:07:18;516.10;;;488.93;;
3000;SDS011;1510;51.072;6.678;2023-09-08T03:09:46;505.27;;;478.60;;
3000;SDS011;1510;51.072;6.678;2023-09-08T03:12:13;450.67;;;428.17;;
3000;SDS011;1510;51.072;6.678;2023-09-08T03:14:40;432.93;;;412.13;;
3000;SDS011;1510;51.072;6.678;2023-09-08T03:17:07;446.93;;;425.43;;
3000;SDS011;1510;51.072;6.678;2023-09-08T03:19:34;471.30;;;448.00;;
3000;SDS011;1510;51.072;6.678;2023-09-08T03:22:01;490.67;;;465.70;;
3000;SDS011;1510;51.072;6.678;2023-09-08T03:24:28;532.20;;;503.57;;
3000;SDS011;1510;51.072;6.678;2023-09-08T03:26:57;567.30;;;535.97;;
3000;SDS011;1510;51.072;6.678;2023-09-08T03:29:24;570.57;;;538.67;;
3000;SDS011;1510;51.072;6.678;2023-09-08T03:31:50;590.97;;;556.97;;
3000;SDS011;1510;51.072;6.678;2023-09-08T03:34:17;669.67;;;630.03;;
3000;SDS011;1510;51.072;6.678;2023-09-08T03:36:45;721.67;;;679.07;;
3000;SDS011;1510;51.072;6.678;2023-09-08T03:39:13;754.57;;;708.90;;
3000;SDS011;1510;51.072;6.678;2023-09-08T03:41:39;741.73;;;697.93;;
3000;SDS011;1510;51.072;6.678;2023-09-08T03:44:08;779.80;;;734.20;;
3000;SDS011;1510;51.072;6.678;2023-09-08T03:46:35;738.10;;;695.47;;
3000;SDS011;1510;51.072;6.678;2023-09-08T03:49:02;678.63;;;640.43;;
3000;SDS011;1510;51.072;6.678;2023-09-08T03:51:30;665.97;;;628.57;;
3000;SDS011;1510;51.072;6.678;2023-09-08T03:53:56;652.70;;;616.40;;
3000;SDS011;1510;51.072;6.678;2023-09-08T03:56:23;645.00;;;609.13;;
3000;SDS011;1510;51.072;6.678;2023-09-08T03:58:50;624.03;;;589.67;;
3000;SDS011;1510;51.072;6.678;2023-09-08T04:01:19;637.17;;;601.33;;
3000;SDS011;1510;51.072;6.678;2023-09-08T04:03:46;639.67;;;602.53;;
3000;SDS011;1510;51.072;6.678;2023-09-08T04:06:13;645.47;;;608.27;;
3000;SDS011;1510;51.072;6.678;2023-09-08T04:08:40;692.23;;;649.87;;
3000;SDS011;1510;51.072;6.678;2023-09-08T04:11:06;721.80;;;676.50;;
3000;SDS011;1510;51.072;6.678;2023-09-08T04:13:33;739.63;;;694.03;;
3000;SDS011;1510;51.072;6.678;2023-09-08T04:16:00;776.33;;;728.13;;
3000;SDS011;1510;51.072;6.678;2023-09-08T04:18:29;767.07;;;719.60;;
3000;SDS011;1510;51.072;6.678;2023-09-08T04:20:56;750.13;;;703.03;;
3000;SDS011;1510;51.072;6.678;2023-09-08T04:23:23;755.87;;;709.27;;
3000;SDS011;1510;51.072;6.678;2023-09-08T04:25:50;742.90;;;698.40;;
3000;SDS011;1510;51.072;6.678;2023-09-08T04:28:16;736.70;;;692.60;;
3000;SDS011;1510;51.072;6.678;2023-09-08T04:30:43;731.70;;;686.57;;
3000;SDS011;1510;51.072;6.678;2023-09-08T04:33:10;738.97;;;694.07;;
3000;SDS011;1510;51.072;6.678;2023-09-08T04:35:39;751.73;;;705.20;;
3000;SDS011;1510;51.072;6.678;2023-09-08T04:38:05;748.97;;;703.77;;
3000;SDS011;1510;51.072;6.678;2023-09-08T04:40:33;723.87;;;680.80;;
3000;SDS011;1510;51.072;6.678;2023-09-08T04:43:00;714.37;;;673.13;;
3000;SDS011;1510;51.072;6.678;2023-09-08T04:45:26;722.60;;;680.70;;
3000;SDS011;1510;51.072;6.678;2023-09-08T04:47:53;707.27;;;665.90;;
3000;SDS011;1510;51.072;6.678;2023-09-08T04:50:20;696.13;;;656.10;;
3000;SDS011;1510;51.072;6.678;2023-09-08T04:52:49;707.60;;;665.83;;
3000;SDS011;1510;51.072;6.678;2023-09-08T04:55:16;726.23;;;683.97;;
3000;SDS011;1510;51.072;6.678;2023-09-08T04:57:44;734.37;;;690.57;;
3000;SDS011;1510;51.072;6.678;2023-09-08T05:00:12;780.97;;;732.80;;
3000;SDS011;1510;51.072;6.678;2023-09-08T05:02:39;794.23;;;744.27;;
3000;SDS011;1510;51.072;6.678;2023-09-08T05:05:06;799.63;;;750.17;;
3000;SDS011;1510;51.072;6.678;2023-09-08T05:07:34;778.03;;;728.93;;
3000;SDS011;1510;51.072;6.678;2023-09-08T05:10:02;788.63;;;739.77;;
3000;SDS011;1510;51.072;6.678;2023-09-08T05:12:29;768.13;;;720.00;;
3000;SDS011;1510;51.072;6.678;2023-09-08T05:14:56;741.43;;;694.93;;
3000;SDS011;1510;51.072;6.678;2023-09-08T05:17:31;759.63;;;713.33;;
3000;SDS011;1510;51.072;6.678;2023-09-08T05:19:58;757.63;;;710.83;;
3000;SDS011;1510;51.072;6.678;2023-09-08T05:22:25;764.53;;;717.30;;
3000;SDS011;1510;51.072;6.678;2023-09-08T05:24:51;759.80;;;713.97;;
3000;SDS011;1510;51.072;6.678;2023-09-08T05:27:20;747.57;;;701.83;;
3000;SDS011;1510;51.072;6.678;2023-09-08T05:29:47;734.77;;;690.33;;
3000;SDS011;1510;51.072;6.678;2023-09-08T05:32:14;738.73;;;693.93;;
3000;SDS011;1510;51.072;6.678;2023-09-08T05:34:40;740.07;;;695.83;;
3000;SDS011;1510;51.072;6.678;2023-09-08T05:37:08;732.50;;;688.20;;
3000;SDS011;1510;51.072;6.678;2023-09-08T05:39:35;719.70;;;675.80;;
3000;SDS011;1510;51.072;6.678;2023-09-08T05:42:02;720.17;;;676.37;;
3000;SDS011;1510;51.072;6.678;2023-09-08T05:44:30;695.10;;;652.90;;
3000;SDS011;1510;51.072;6.678;2023-09-08T05:46:57;676.47;;;635.57;;
3000;SDS011;1510;51.072;6.678;2023-09-08T05:49:24;662.87;;;623.23;;
3000;SDS011;1510;51.072;6.678;2023-09-08T05:51:51;649.97;;;611.57;;
3000;SDS011;1510;51.072;6.678;2023-09-08T05:54:18;637.37;;;600.83;;
3000;SDS011;1510;51.072;6.678;2023-09-08T05:56:45;610.70;;;575.97;;
3000;SDS011;1510;51.072;6.678;2023-09-08T05:59:12;581.60;;;549.13;;
3000;SDS011;1510;51.072;6.678;2023-09-08T06:01:40;561.80;;;530.70;;
3000;SDS011;1510;51.072;6.678;2023-09-08T06:04:07;527.13;;;498.83;;
3000;SDS011;1510;51.072;6.678;2023-09-08T06:06:35;515.53;;;487.77;;
3000;SDS011;1510;51.072;6.678;2023-09-08T06:09:02;484.17;;;459.03;;
3000;SDS011;1510;51.072;6.678;2023-09-08T06:11:31;463.60;;;440.27;;
3000;SDS011;1510;51.072;6.678;2023-09-08T06:13:58;418.20;;;397.73;;
3000;SDS011;1510;51.072;6.678;2023-09-08T06:16:29;420.10;;;399.50;;
3000;SDS011;1510;51.072;6.678;2023-09-08T06:18:57;400.03;;;381.07;;
3000;SDS011;1510;51.072;6.678;2023-09-08T06:21:25;394.63;;;376.20;;
3000;SDS011;1510;51.072;6.678;2023-09-08T06:23:52;403.80;;;384.20;;
3000;SDS011;1510;51.072;6.678;2023-09-08T06:26:19;397.80;;;378.83;;
3000;SDS011;1510;51.072;6.678;2023-09-08T06:28:46;366.37;;;349.17;;
3000;SDS011;1510;51.072;6.678;2023-09-08T06:31:13;352.33;;;336.00;;
3000;SDS011;1510;51.072;6.678;2023-09-08T06:33:40;338.20;;;323.30;;
3000;SDS011;1510;51.072;6.678;2023-09-08T06:36:08;300.63;;;287.93;;
3000;SDS011;1510;51.072;6.678;2023-09-08T06:38:35;292.43;;;280.10;;
3000;SDS011;1510;51.072;6.678;2023-09-08T06:41:07;261.10;;;250.70;;
3000;SDS011;1510;51.072;6.678;2023-09-08T06:43:35;248.43;;;238.77;;
3000;SDS011;1510;51.072;6.678;2023-09-08T06:46:02;216.13;;;207.87;;
3000;SDS011;1510;51.072;6.678;2023-09-08T06:48:29;168.13;;;161.63;;
3000;SDS011;1510;51.072;6.678;2023-09-08T06:50:56;149.43;;;143.53;;
3000;SDS011;1510;51.072;6.678;2023-09-08T06:53:25;118.43;;;113.63;;
3000;SDS011;1510;51.072;6.678;2023-09-08T06:55:52;104.87;;;100.67;;
3000;SDS011;1510;51.072;6.678;2023-09-08T06:58:19;97.80;;;93.83;;
3000;SDS011;1510;51.072;6.678;2023-09-08T07:00:46;68.07;;;64.90;;
3000;SDS011;1510;51.072;6.678;2023-09-08T07:03:14;78.57;;;74.77;;
3000;SDS011;1510;51.072;6.678;2023-09-08T07:05:41;37.10;;;35.10;;
3000;SDS011;1510;51.072;6.678;2023-09-08T07:08:08;46.23;;;43.80;;
3000;SDS011;1510;51.072;6.678;2023-09-08T07:10:36;20.97;;;19.33;;
3000;SDS011;1510;51.072;6.678;2023-09-08T07:13:04;20.53;;;18.83;;
3000;SDS011;1510;51.072;6.678;2023-09-08T07:15:31;19.80;;;10.30;;
3000;SDS011;1510;51.072;6.678;2023-09-08T07:17:58;14.83;;;9.83;;
3000;SDS011;1510;51.072;6.678;2023-09-08T07:20:24;12.87;;;8.87;;
3000;SDS011;1510;51.072;6.678;2023-09-08T07:22:51;10.30;;;8.67;;
3000;SDS011;1510;51.072;6.678;2023-09-08T07:25:19;9.33;;;8.30;;
3000;SDS011;1510;51.072;6.678;2023-09-08T07:27:47;13.60;;;8.07;;
3000;SDS011;1510;51.072;6.678;2023-09-08T07:30:17;13.70;;;9.40;;
3000;SDS011;1510;51.072;6.678;2023-09-08T07:32:47;10.27;;;7.00;;
3000;SDS011;1510;51.072;6.678;2023-09-08T07:35:14;13.07;;;8.70;;
3000;SDS011;1510;51.072;6.678;2023-09-08T07:37:42;10.67;;;7.70;;
3000;SDS011;1510;51.072;6.678;2023-09-08T07:40:09;10.63;;;7.10;;
3000;SDS011;1510;51.072;6.678;2023-09-08T07:42:36;8.90;;;6.70;;
3000;SDS011;1510;51.072;6.678;2023-09-08T07:45:06;11.38;;;7.68;;
3000;SDS011;1510;51.072;6.678;2023-09-08T07:47:34;12.98;;;7.78;;
3000;SDS011;1510;51.072;6.678;2023-09-08T07:50:19;9.70;;;6.40;;
3000;SDS011;1510;51.072;6.678;2023-09-08T07:52:48;13.07;;;8.07;;
3000;SDS011;1510;51.072;6.678;2023-09-08T07:55:16;15.43;;;6.97;;
3000;SDS011;1510;51.072;6.678;2023-09-08T07:57:45;14.87;;;6.90;;
3000;SDS011;1510;51.072;6.678;2023-09-08T08:00:14;11.80;;;6.57;;
3000;SDS011;1510;51.072;6.678;2023-09-08T08:02:42;12.20;;;6.47;;
3000;SDS011;1510;51.072;6.678;2023-09-08T08:05:11;9.50;;;6.13;;
3000;SDS011;1510;51.072;6.678;2023-09-08T08:07:39;7.70;;;5.50;;
3000;SDS011;1510;51.072;6.678;2023-09-08T08:10:06;9.80;;;6.37;;
3000;SDS011;1510;51.072;6.678;2023-09-08T08:12:34;21.07;;;6.50;;
3000;SDS011;1510;51.072;6.678;2023-09-08T08:15:02;10.00;;;5.80;;
3000;SDS011;1510;51.072;6.678;2023-09-08T08:17:31;12.23;;;6.37;;
3000;SDS011;1510;51.072;6.678;2023-09-08T08:19:58;11.63;;;5.57;;
3000;SDS011;1510;51.072;6.678;2023-09-08T08:22:31;11.40;;;7.07;;
3000;SDS011;1510;51.072;6.678;2023-09-08T08:24:58;9.10;;;6.03;;
3000;SDS011;1510;51.072;6.678;2023-09-08T08:27:25;12.40;;;5.90;;
3000;SDS011;1510;51.072;6.678;2023-09-08T08:29:52;9.57;;;6.20;;
3000;SDS011;1510;51.072;6.678;2023-09-08T08:32:19;10.93;;;6.10;;
3000;SDS011;1510;51.072;6.678;2023-09-08T08:34:47;13.77;;;7.80;;
3000;SDS011;1510;51.072;6.678;2023-09-08T08:37:14;13.30;;;5.87;;
3000;SDS011;1510;51.072;6.678;2023-09-08T08:39:41;9.03;;;6.47;;
3000;SDS011;1510;51.072;6.678;2023-09-08T08:42:08;13.40;;;6.13;;
3000;SDS011;1510;51.072;6.678;2023-09-08T08:44:35;8.90;;;5.57;;
3000;SDS011;1510;51.072;6.678;2023-09-08T08:47:05;14.33;;;7.07;;
3000;SDS011;1510;51.072;6.678;2023-09-08T08:49:33;10.93;;;6.17;;
3000;SDS011;1510;51.072;6.678;2023-09-08T08:52:03;9.00;;;5.53;;
3000;SDS011;1510;51.072;6.678;2023-09-08T08:54:33;9.73;;;5.60;;
3000;SDS011;1510;51.072;6.678;2023-09-08T08:57:01;10.33;;;5.80;;
3000;SDS011;1510;51.072;6.678;2023-09-08T08:59:28;9.77;;;6.07;;
3000;SDS011;1510;51.072;6.678;2023-09-08T09:01:56;10.30;;;5.80;;
3000;SDS011;1510;51.072;6.678;2023-09-08T09:04:24;8.60;;;5.63;;
3000;SDS011;1510;51.072;6.678;2023-09-08T09:06:52;9.60;;;5.80;;
3000;SDS011;1510;51.072;6.678;2023-09-08T09:09:21;12.70;;;6.53;;
3000;SDS011;1510;51.072;6.678;2023-09-08T09:11:50;9.93;;;5.90;;
3000;SDS011;1510;51.072;6.678;2023-09-08T09:14:17;10.43;;;6.73;;
3000;SDS011;1510;51.072;6.678;2023-09-08T09:16:44;9.97;;;5.17;;
3000;SDS011;1510;51.072;6.678;2023-09-08T09:19:17;10.03;;;6.57;;
3000;SDS011;1510;51.072;6.678;2023-09-08T09:21:50;7.60;;;4.23;;
3000;SDS011;1510;51.072;6.678;2023-09-08T09:24:29;11.63;;;6.97;;
3000;SDS011;1510;51.072;6.678;2023-09-08T09:26:58;7.87;;;4.60;;
3000;SDS011;1510;51.072;6.678;2023-09-08T09:29:26;8.57;;;5.40;;
3000;SDS011;1510;51.072;6.678;2023-09-08T09:31:55;9.93;;;5.10;;
3000;SDS011;1510;51.072;6.678;2023-09-08T09:34:24;10.20;;;5.50;;
3000;SDS011;1510;51.072;6.678;2023-09-08T09:36:51;11.00;;;6.20;;
3000;SDS011;1510;51.072;6.678;2023-09-08T09:39:19;9.63;;;5.60;;
3000;SDS011;1510;51.072;6.678;2023-09-08T09:41:48;11.50;;;5.70;;
3000;SDS011;1510;51.072;6.678;2023-09-08T09:44:15;14.97;;;6.57;;
3000;SDS011;1510;51.072;6.678;2023-09-08T09:46:43;9.13;;;5.73;;
3000;SDS011;1510;51.072;6.678;2023-09-08T09:49:11;10.40;;;5.43;;
3000;SDS011;1510;51.072;6.678;2023-09-08T09:51:42;9.70;;;5.90;;
3000;SDS011;1510;51.072;6.678;2023-09-08T09:54:10;10.50;;;5.70;;
3000;SDS011;1510;51.072;6.678;2023-09-08T09:56:38;8.13;;;5.63;;
3000;SDS011;1510;51.072;6.678;2023-09-08T09:59:08;10.17;;;5.37;;
3000;SDS011;1510;51.072;6.678;2023-09-08T10:01:39;10.47;;;4.93;;
3000;SDS011;1510;51.072;6.678;2023-09-08T10:04:07;11.90;;;5.33;;
3000;SDS011;1510;51.072;6.678;2023-09-08T10:06:36;8.67;;;6.00;;
3000;SDS011;1510;51.072;6.678;2023-09-08T10:09:04;7.43;;;5.07;;
3000;SDS011;1510;51.072;6.678;2023-09-08T10:11:34;10.10;;;5.83;;
3000;SDS011;1510;51.072;6.678;2023-09-08T10:14:05;8.47;;;5.27;;
3000;SDS011;1510;51.072;6.678;2023-09-08T10:16:36;7.70;;;5.07;;
3000;SDS011;1510;51.072;6.678;2023-09-08T10:19:07;9.57;;;5.20;;
3000;SDS011;1510;51.072;6.678;2023-09-08T10:21:36;9.13;;;5.70;;
3000;SDS011;1510;51.072;6.678;2023-09-08T10:24:08;9.90;;;5.30;;
3000;SDS011;1510;51.072;6.678;2023-09-08T10:26:40;10.43;;;6.10;;
3000;SDS011;1510;51.072;6.678;2023-09-08T10:29:12;10.90;;;5.70;;
3000;SDS011;1510;51.072;6.678;2023-09-08T10:31:39;9.50;;;5.67;;
3000;SDS011;1510;51.072;6.678;2023-09-08T10:34:07;8.40;;;5.27;;
3000;SDS011;1510;51.072;6.678;2023-09-08T10:36:34;8.27;;;6.23;;
3000;SDS011;1510;51.072;6.678;2023-09-08T10:42:22;10.37;;;5.67;;
3000;SDS011;1510;51.072;6.678;2023-09-08T10:45:01;10.00;;;5.60;;
3000;SDS011;1510;51.072;6.678;2023-09-08T10:47:41;8.90;;;5.33;;
3000;SDS011;1510;51.072;6.678;2023-09-08T10:50:25;8.67;;;5.10;;
3000;SDS011;1510;51.072;6.678;2023-09-08T10:53:10;8.70;;;5.70;;
3000;SDS011;1510;51.072;6.678;2023-09-08T10:55:42;9.73;;;5.10;;
3000;SDS011;1510;51.072;6.678;2023-09-08T10:58:19;8.97;;;5.60;;
3000;SDS011;1510;51.072;6.678;2023-09-08T11:00:50;7.10;;;4.63;;
3000;SDS011;1510;51.072;6.678;2023-09-08T11:03:25;9.20;;;5.70;;
3000;SDS011;1510;51.072;6.678;2023-09-08T11:05:54;9.87;;;5.40;;
3000;SDS011;1510;51.072;6.678;2023-09-08T11:08:22;8.60;;;5.43;;
3000;SDS011;1510;51.072;6.678;2023-09-08T11:10:49;9.77;;;5.10;;
3000;SDS011;1510;51.072;6.678;2023-09-08T11:13:17;10.43;;;5.23;;
3000;SDS011;1510;51.072;6.678;2023-09-08T11:15:44;8.27;;;5.80;;
3000;SDS011;1510;51.072;6.678;2023-09-08T11:18:12;7.90;;;5.27;;
3000;SDS011;1510;51.072;6.678;2023-09-08T11:20:39;8.10;;;5.50;;
3000;SDS011;1510;51.072;6.678;2023-09-08T11:23:06;8.07;;;5.17;;
3000;SDS011;1510;51.072;6.678;2023-09-08T11:25:33;11.20;;;5.63;;
3000;SDS011;1510;51.072;6.678;2023-09-08T11:28:00;11.17;;;5.50;;
3000;SDS011;1510;51.072;6.678;2023-09-08T11:30:28;7.00;;;4.37;;
3000;SDS011;1510;51.072;6.678;2023-09-08T11:32:55;9.70;;;5.73;;
3000;SDS011;1510;51.072;6.678;2023-09-08T11:35:25;11.27;;;5.90;;
3000;SDS011;1510;51.072;6.678;2023-09-08T11:37:58;11.37;;;5.10;;
3000;SDS011;1510;51.072;6.678;2023-09-08T11:40:27;10.40;;;5.40;;
3000;SDS011;1510;51.072;6.678;2023-09-08T11:42:54;7.90;;;4.83;;
3000;SDS011;1510;51.072;6.678;2023-09-08T11:45:21;7.87;;;4.70;;
3000;SDS011;1510;51.072;6.678;2023-09-08T11:47:48;8.90;;;4.73;;
3000;SDS011;1510;51.072;6.678;2023-09-08T11:50:16;7.63;;;5.40;;
3000;SDS011;1510;51.072;6.678;2023-09-08T11:52:47;10.07;;;5.20;;
3000;SDS011;1510;51.072;6.678;2023-09-08T11:55:14;8.80;;;5.33;;
3000;SDS011;1510;51.072;6.678;2023-09-08T11:57:44;10.13;;;5.00;;
3000;SDS011;1510;51.072;6.678;2023-09-08T12:00:13;10.90;;;5.23;;
3000;SDS011;1510;51.072;6.678;2023-09-08T12:02:43;7.73;;;4.73;;
3000;SDS011;1510;51.072;6.678;2023-09-08T12:05:13;9.17;;;4.77;;
3000;SDS011;1510;51.072;6.678;2023-09-08T12:07:47;9.43;;;5.50;;
3000;SDS011;1510;51.072;6.678;2023-09-08T12:10:14;8.00;;;4.80;;
3000;SDS011;1510;51.072;6.678;2023-09-08T12:12:43;8.87;;;5.57;;
3000;SDS011;1510;51.072;6.678;2023-09-08T12:15:11;7.80;;;5.50;;
3000;SDS011;1510;51.072;6.678;2023-09-08T12:17:47;7.40;;;4.90;;
3000;SDS011;1510;51.072;6.678;2023-09-08T12:20:15;11.57;;;4.83;;
3000;SDS011;1510;51.072;6.678;2023-09-08T12:22:50;9.70;;;5.90;;
3000;SDS011;1510;51.072;6.678;2023-09-08T12:25:18;7.50;;;5.47;;
3000;SDS011;1510;51.072;6.678;2023-09-08T12:27:45;8.97;;;5.63;;
3000;SDS011;1510;51.072;6.678;2023-09-08T12:30:19;9.37;;;4.73;;
3000;SDS011;1510;51.072;6.678;2023-09-08T12:32:48;8.70;;;5.80;;
3000;SDS011;1510;51.072;6.678;2023-09-08T12:35:21;10.00;;;5.40;;
3000;SDS011;1510;51.072;6.678;2023-09-08T12:37:53;8.13;;;5.47;;
3000;SDS011;1510;51.072;6.678;2023-09-08T12:40:22;12.20;;;5.43;;
3000;SDS011;1510;51.072;6.678;2023-09-08T12:42:50;9.87;;;5.33;;
3000;SDS011;1510;51.072;6.678;2023-09-08T12:45:17;9.57;;;5.70;;
3000;SDS011;1510;51.072;6.678;2023-09-08T12:47:44;10.87;;;5.13;;
3000;SDS011;1510;51.072;6.678;2023-09-08T12:50:11;10.07;;;5.73;;
3000;SDS011;1510;51.072;6.678;2023-09-08T12:52:39;13.40;;;5.73;;
3000;SDS011;1510;51.072;6.678;2023-09-08T12:55:08;8.07;;;4.80;;
3000;SDS011;1510;51.072;6.678;2023-09-08T12:57:35;9.50;;;5.30;;
3000;SDS011;1510;51.072;6.678;2023-09-08T13:00:02;8.47;;;5.17;;
3000;SDS011;1510;51.072;6.678;2023-09-08T13:02:30;8.70;;;5.10;;
3000;SDS011;1510;51.072;6.678;2023-09-08T13:04:57;11.40;;;4.90;;
3000;SDS011;1510;51.072;6.678;2023-09-08T13:07:24;11.80;;;4.33;;
3000;SDS011;1510;51.072;6.678;2023-09-08T13:09:51;8.00;;;5.00;;
3000;SDS011;1510;51.072;6.678;2023-09-08T13:12:19;8.93;;;5.70;;
3000;SDS011;1510;51.072;6.678;2023-09-08T13:14:48;9.67;;;5.70;;
3000;SDS011;1510;51.072;6.678;2023-09-08T13:17:15;10.00;;;4.93;;
3000;SDS011;1510;51.072;6.678;2023-09-08T13:19:42;8.00;;;4.87;;
3000;SDS011;1510;51.072;6.678;2023-09-08T13:22:10;9.00;;;5.83;;
3000;SDS011;1510;51.072;6.678;2023-09-08T13:24:37;7.40;;;4.70;;
3000;SDS011;1510;51.072;6.678;2023-09-08T13:27:04;8.07;;;4.87;;
3000;SDS011;1510;51.072;6.678;2023-09-08T13:29:33;8.40;;;4.70;;
3000;SDS011;1510;51.072;6.678;2023-09-08T13:32:01;8.90;;;5.00;;
3000;SDS011;1510;51.072;6.678;2023-09-08T13:34:28;8.27;;;4.87;;
3000;SDS011;1510;51.072;6.678;2023-09-08T13:36:54;6.77;;;4.27;;
3000;SDS011;1510;51.072;6.678;2023-09-08T13:39:21;10.13;;;5.17;;
3000;SDS011;1510;51.072;6.678;2023-09-08T13:41:49;8.80;;;5.50;;
3000;SDS011;1510;51.072;6.678;2023-09-08T13:44:17;9.10;;;6.10;;
3000;SDS011;1510;51.072;6.678;2023-09-08T13:46:46;7.73;;;4.60;;
3000;SDS011;1510;51.072;6.678;2023-09-08T13:49:13;8.40;;;5.00;;
3000;SDS011;1510;51.072;6.678;2023-09-08T13:51:41;7.60;;;5.13;;
3000;SDS011;1510;51.072;6.678;2023-09-08T13:54:08;8.77;;;4.67;;
3000;SDS011;1510;51.072;6.678;2023-09-08T13:56:37;7.57;;;4.30;;
3000;SDS011;1510;51.072;6.678;2023-09-08T13:59:05;8.70;;;4.77;;
3000;SDS011;1510;51.072;6.678;2023-09-08T14:01:32;10.97;;;5.63;;
3000;SDS011;1510;51.072;6.678;2023-09-08T14:04:01;11.57;;;5.27;;
3000;SDS011;1510;51.072;6.678;2023-09-08T14:06:31;8.23;;;4.37;;
3000;SDS011;1510;51.072;6.678;2023-09-08T14:08:58;10.50;;;5.17;;
3000;SDS011;1510;51.072;6.678;2023-09-08T14:11:25;8.10;;;4.90;;
3000;SDS011;1510;51.072;6.678;2023-09-08T14:13:53;10.43;;;4.17;;
3000;SDS011;1510;51.072;6.678;2023-09-08T14:16:20;21.07;;;7.20;;
3000;SDS011;1510;51.072;6.678;2023-09-08T14:18:47;6.50;;;4.53;;
3000;SDS011;1510;51.072;6.678;2023-09-08T14:21:15;7.40;;;4.57;;
3000;SDS011;1510;51.072;6.678;2023-09-08T14:23:42;9.83;;;5.07;;
3000;SDS011;1510;51.072;6.678;2023-09-08T14:26:09;8.33;;;4.53;;
3000;SDS011;1510;51.072;6.678;2023-09-08T14:28:35;7.47;;;4.70;;
3000;SDS011;1510;51.072;6.678;2023-09-08T14:31:02;9.57;;;5.20;;
3000;SDS011;1510;51.072;6.678;2023-09-08T14:33:29;7.10;;;4.40;;
3000;SDS011;1510;51.072;6.678;2023-09-08T14:35:56;10.83;;;5.20;;
3000;SDS011;1510;51.072;6.678;2023-09-08T14:38:25;11.90;;;5.43;;
3000;SDS011;1510;51.072;6.678;2023-09-08T14:40:55;8.53;;;5.13;;
3000;SDS011;1510;51.072;6.678;2023-09-08T14:43:24;8.20;;;4.70;;
3000;SDS011;1510;51.072;6.678;2023-09-08T14:45:51;9.97;;;4.73;;
3000;SDS011;1510;51.072;6.678;2023-09-08T14:48:18;9.30;;;4.67;;
3000;SDS011;1510;51.072;6.678;2023-09-08T14:50:46;8.73;;;4.60;;
3000;SDS011;1510;51.072;6.678;2023-09-08T14:53:13;13.70;;;5.77;;
3000;SDS011;1510;51.072;6.678;2023-09-08T14:55:41;10.17;;;4.67;;